DAL2860 KATL-KSAV
Flight info
| Callsign | DAL2860 |
|---|---|
| Flight time | 0h 39m |
| Altitude | 27000 |
| Route | VRSTY3 NOKIE DBN LOTTS SAV |
| Aircraft | A319/M-SDE3FGHIRWY/LB1 |
Departure
| Time | 2026-04-30 21:22 |
|---|---|
| Airport | Hartsfield Jackson Atlanta International Airport (KATL) |
Arrival
| Time | 2026-04-30 22:01 |
|---|---|
| Airport | Savannah Hilton Head International Airport (KSAV) |
| Time | Latitude | Longitude | Altitude | Speed | Heading |
|---|---|---|---|---|---|
| 2026-04-30 20:50 | 33.63952 | -84.43543 | 1036 ft | 0 kts | 269° |
| 2026-04-30 21:10 | 33.63953 | -84.43531 | 1035 ft | 4 kts | 269° |
| 2026-04-30 21:10 | 33.63953 | -84.43499 | 1035 ft | 4 kts | 262° |
| 2026-04-30 21:10 | 33.63961 | -84.43471 | 1035 ft | 4 kts | 225° |
| 2026-04-30 21:10 | 33.63977 | -84.43460 | 1035 ft | 0 kts | 179° |
| 2026-04-30 21:12 | 33.63975 | -84.43460 | 1035 ft | 2 kts | 179° |
| 2026-04-30 21:13 | 33.63942 | -84.43460 | 1035 ft | 8 kts | 180° |
| 2026-04-30 21:13 | 33.63864 | -84.43461 | 1035 ft | 14 kts | 180° |
| 2026-04-30 21:13 | 33.63760 | -84.43460 | 1035 ft | 15 kts | 180° |
| 2026-04-30 21:13 | 33.63669 | -84.43425 | 1035 ft | 15 kts | 112° |
| 2026-04-30 21:14 | 33.63664 | -84.43302 | 1035 ft | 15 kts | 90° |
| 2026-04-30 21:14 | 33.63665 | -84.43177 | 1035 ft | 15 kts | 90° |
| 2026-04-30 21:14 | 33.63665 | -84.43052 | 1035 ft | 15 kts | 90° |
| 2026-04-30 21:14 | 33.63665 | -84.42925 | 1035 ft | 15 kts | 90° |
| 2026-04-30 21:15 | 33.63665 | -84.42798 | 1035 ft | 15 kts | 91° |
| 2026-04-30 21:15 | 33.63656 | -84.42672 | 1036 ft | 15 kts | 91° |
| 2026-04-30 21:15 | 33.63656 | -84.42547 | 1036 ft | 15 kts | 90° |
| 2026-04-30 21:15 | 33.63656 | -84.42419 | 1036 ft | 15 kts | 90° |
| 2026-04-30 21:16 | 33.63656 | -84.42291 | 1036 ft | 15 kts | 89° |
| 2026-04-30 21:16 | 33.63656 | -84.42163 | 1036 ft | 15 kts | 89° |
| 2026-04-30 21:16 | 33.63656 | -84.42033 | 1036 ft | 16 kts | 90° |
| 2026-04-30 21:16 | 33.63656 | -84.41898 | 1035 ft | 16 kts | 90° |
| 2026-04-30 21:17 | 33.63656 | -84.41761 | 1035 ft | 16 kts | 90° |
| 2026-04-30 21:17 | 33.63656 | -84.41623 | 1035 ft | 17 kts | 90° |
| 2026-04-30 21:17 | 33.63656 | -84.41483 | 1035 ft | 17 kts | 90° |
| 2026-04-30 21:17 | 33.63656 | -84.41341 | 1035 ft | 17 kts | 90° |
| 2026-04-30 21:18 | 33.63656 | -84.41200 | 1035 ft | 17 kts | 89° |
| 2026-04-30 21:18 | 33.63656 | -84.41061 | 1035 ft | 17 kts | 90° |
| 2026-04-30 21:18 | 33.63654 | -84.40944 | 1035 ft | 11 kts | 104° |
| 2026-04-30 21:18 | 33.63592 | -84.40911 | 1035 ft | 11 kts | 182° |
| 2026-04-30 21:19 | 33.63520 | -84.40913 | 1036 ft | 10 kts | 181° |
| 2026-04-30 21:19 | 33.63471 | -84.40931 | 1036 ft | 6 kts | 255° |
| 2026-04-30 21:19 | 33.63471 | -84.40954 | 1036 ft | 0 kts | 271° |
| 2026-04-30 21:21 | 33.63472 | -84.41002 | 1036 ft | 31 kts | 271° |
| 2026-04-30 21:21 | 33.63475 | -84.42644 | 1084 ft | 149 kts | 274° |
| 2026-04-30 21:22 | 33.63470 | -84.43896 | 1644 ft | 151 kts | 276° |
| 2026-04-30 21:22 | 33.63463 | -84.46827 | 3115 ft | 155 kts | 276° |
| 2026-04-30 21:23 | 33.63462 | -84.48154 | 3602 ft | 167 kts | 275° |
| 2026-04-30 21:23 | 33.63468 | -84.49646 | 3906 ft | 190 kts | 276° |
| 2026-04-30 21:23 | 33.63482 | -84.53230 | 4568 ft | 241 kts | 273° |
| 2026-04-30 21:24 | 33.63483 | -84.55347 | 5063 ft | 265 kts | 273° |
| 2026-04-30 21:24 | 33.63478 | -84.57589 | 5918 ft | 270 kts | 271° |
| 2026-04-30 21:24 | 33.63468 | -84.59852 | 6911 ft | 270 kts | 272° |
| 2026-04-30 21:24 | 33.63455 | -84.62114 | 7875 ft | 272 kts | 270° |
| 2026-04-30 21:25 | 33.62095 | -84.66334 | 9823 ft | 282 kts | 230° |
| 2026-04-30 21:25 | 33.60537 | -84.67797 | 10716 ft | 289 kts | 213° |
| 2026-04-30 21:25 | 33.58711 | -84.68842 | 11611 ft | 295 kts | 203° |
| 2026-04-30 21:26 | 33.54538 | -84.69168 | 13298 ft | 313 kts | 176° |
| 2026-04-30 21:26 | 33.52371 | -84.68750 | 14081 ft | 317 kts | 177° |
| 2026-04-30 21:27 | 33.47988 | -84.67925 | 15460 ft | 326 kts | 178° |
| 2026-04-30 21:27 | 33.45735 | -84.67465 | 16133 ft | 334 kts | 173° |
| 2026-04-30 21:27 | 33.43519 | -84.66469 | 16781 ft | 349 kts | 158° |
| 2026-04-30 21:28 | 33.39773 | -84.62263 | 17443 ft | 399 kts | 124° |
| 2026-04-30 21:28 | 33.38392 | -84.59352 | 17727 ft | 414 kts | 122° |
| 2026-04-30 21:28 | 33.35498 | -84.53256 | 18771 ft | 427 kts | 123° |
| 2026-04-30 21:29 | 33.34042 | -84.50130 | 19298 ft | 434 kts | 119° |
| 2026-04-30 21:29 | 33.30298 | -84.40048 | 20850 ft | 450 kts | 116° |
| 2026-04-30 21:30 | 33.27814 | -84.33086 | 21906 ft | 460 kts | 117° |
| 2026-04-30 21:31 | 33.23933 | -84.22397 | 23406 ft | 475 kts | 118° |
| 2026-04-30 21:31 | 33.21252 | -84.15104 | 24197 ft | 484 kts | 118° |
| 2026-04-30 21:32 | 33.18514 | -84.07671 | 24959 ft | 493 kts | 118° |
| 2026-04-30 21:32 | 33.17131 | -84.03913 | 25328 ft | 497 kts | 118° |
| 2026-04-30 21:32 | 33.15734 | -84.00121 | 25684 ft | 501 kts | 117° |
| 2026-04-30 21:32 | 33.14327 | -83.96306 | 26061 ft | 505 kts | 117° |
| 2026-04-30 21:33 | 33.12907 | -83.92457 | 26422 ft | 509 kts | 117° |
| 2026-04-30 21:33 | 33.10023 | -83.84688 | 26900 ft | 513 kts | 117° |
| 2026-04-30 21:33 | 33.08588 | -83.80835 | 26925 ft | 504 kts | 117° |
| 2026-04-30 21:34 | 33.07165 | -83.77033 | 26923 ft | 501 kts | 118° |
| 2026-04-30 21:34 | 33.04327 | -83.69464 | 26916 ft | 500 kts | 118° |
| 2026-04-30 21:34 | 33.02906 | -83.65676 | 26913 ft | 500 kts | 117° |
| 2026-04-30 21:35 | 33.01485 | -83.61894 | 26917 ft | 500 kts | 118° |
| 2026-04-30 21:35 | 33.00084 | -83.58164 | 26904 ft | 501 kts | 117° |
| 2026-04-30 21:35 | 32.98664 | -83.54382 | 26875 ft | 499 kts | 117° |
| 2026-04-30 21:35 | 32.97247 | -83.50613 | 26902 ft | 498 kts | 117° |
| 2026-04-30 21:36 | 32.95830 | -83.46850 | 26922 ft | 498 kts | 117° |
| 2026-04-30 21:36 | 32.94412 | -83.43093 | 26914 ft | 497 kts | 117° |
| 2026-04-30 21:37 | 32.90169 | -83.31863 | 26915 ft | 496 kts | 117° |
| 2026-04-30 21:37 | 32.88750 | -83.28126 | 26910 ft | 495 kts | 118° |
| 2026-04-30 21:37 | 32.87334 | -83.24398 | 26905 ft | 495 kts | 118° |
| 2026-04-30 21:37 | 32.85915 | -83.20666 | 26900 ft | 495 kts | 117° |
| 2026-04-30 21:38 | 32.84496 | -83.16934 | 26900 ft | 495 kts | 118° |
| 2026-04-30 21:38 | 32.83079 | -83.13205 | 26901 ft | 495 kts | 117° |
| 2026-04-30 21:38 | 32.81659 | -83.09473 | 26908 ft | 495 kts | 118° |
| 2026-04-30 21:38 | 32.80240 | -83.05751 | 26738 ft | 493 kts | 118° |
| 2026-04-30 21:39 | 32.78828 | -83.02049 | 26492 ft | 490 kts | 118° |
| 2026-04-30 21:39 | 32.77425 | -82.98375 | 26246 ft | 487 kts | 118° |
| 2026-04-30 21:39 | 32.76026 | -82.94723 | 26006 ft | 485 kts | 118° |
| 2026-04-30 21:39 | 32.74633 | -82.91088 | 25763 ft | 482 kts | 118° |
| 2026-04-30 21:40 | 32.73249 | -82.87481 | 25347 ft | 477 kts | 119° |
| 2026-04-30 21:40 | 32.71879 | -82.83947 | 25215 ft | 463 kts | 119° |
| 2026-04-30 21:40 | 32.70507 | -82.80547 | 25092 ft | 450 kts | 121° |
| 2026-04-30 21:40 | 32.69597 | -82.78363 | 25013 ft | 442 kts | 122° |
| 2026-04-30 21:41 | 32.68208 | -82.75139 | 24825 ft | 443 kts | 123° |
| 2026-04-30 21:41 | 32.66691 | -82.71884 | 24576 ft | 453 kts | 124° |
| 2026-04-30 21:41 | 32.65117 | -82.68660 | 24346 ft | 450 kts | 126° |
| 2026-04-30 21:41 | 32.63527 | -82.65475 | 24117 ft | 447 kts | 126° |
| 2026-04-30 21:42 | 32.61947 | -82.62321 | 23889 ft | 444 kts | 126° |
| 2026-04-30 21:42 | 32.60382 | -82.59177 | 23665 ft | 441 kts | 126° |
| 2026-04-30 21:42 | 32.58839 | -82.56044 | 23439 ft | 439 kts | 126° |
| 2026-04-30 21:42 | 32.57315 | -82.52927 | 23173 ft | 436 kts | 126° |
| 2026-04-30 21:43 | 32.55803 | -82.49819 | 22949 ft | 435 kts | 125° |
| 2026-04-30 21:43 | 32.54285 | -82.46706 | 22673 ft | 435 kts | 125° |
| 2026-04-30 21:43 | 32.52779 | -82.43614 | 22413 ft | 432 kts | 125° |
| 2026-04-30 21:43 | 32.51274 | -82.40529 | 22157 ft | 431 kts | 125° |
| 2026-04-30 21:44 | 32.49778 | -82.37470 | 21900 ft | 428 kts | 125° |
| 2026-04-30 21:44 | 32.48285 | -82.34424 | 21644 ft | 427 kts | 125° |
| 2026-04-30 21:44 | 32.46794 | -82.31388 | 21391 ft | 426 kts | 125° |
| 2026-04-30 21:44 | 32.45309 | -82.28367 | 21146 ft | 424 kts | 125° |
| 2026-04-30 21:45 | 32.43824 | -82.25349 | 20945 ft | 423 kts | 125° |
| 2026-04-30 21:45 | 32.42346 | -82.22338 | 20698 ft | 422 kts | 124° |
| 2026-04-30 21:45 | 32.40874 | -82.19336 | 20458 ft | 421 kts | 124° |
| 2026-04-30 21:45 | 32.39410 | -82.16354 | 20132 ft | 418 kts | 124° |
| 2026-04-30 21:46 | 32.37946 | -82.13380 | 19600 ft | 418 kts | 124° |
| 2026-04-30 21:46 | 32.36480 | -82.10410 | 19051 ft | 418 kts | 124° |
| 2026-04-30 21:46 | 32.35011 | -82.07438 | 18535 ft | 419 kts | 124° |
| 2026-04-30 21:46 | 32.33559 | -82.04501 | 17963 ft | 420 kts | 123° |
| 2026-04-30 21:47 | 32.32086 | -82.01521 | 17413 ft | 419 kts | 123° |
| 2026-04-30 21:47 | 32.30615 | -81.98548 | 16881 ft | 418 kts | 123° |
| 2026-04-30 21:47 | 32.29153 | -81.95593 | 16364 ft | 415 kts | 123° |
| 2026-04-30 21:47 | 32.27678 | -81.92618 | 15834 ft | 413 kts | 123° |
| 2026-04-30 21:48 | 32.26233 | -81.89702 | 15449 ft | 407 kts | 123° |
| 2026-04-30 21:48 | 32.24805 | -81.86822 | 14976 ft | 404 kts | 123° |
| 2026-04-30 21:48 | 32.23393 | -81.83977 | 14561 ft | 399 kts | 123° |
| 2026-04-30 21:48 | 32.22014 | -81.81206 | 14147 ft | 395 kts | 122° |
| 2026-04-30 21:49 | 32.20636 | -81.78436 | 13674 ft | 387 kts | 122° |
| 2026-04-30 21:49 | 32.19281 | -81.75716 | 12946 ft | 380 kts | 122° |
| 2026-04-30 21:49 | 32.17976 | -81.73097 | 12744 ft | 358 kts | 123° |
| 2026-04-30 21:49 | 32.16751 | -81.70639 | 12609 ft | 338 kts | 123° |
| 2026-04-30 21:50 | 32.15593 | -81.68311 | 12479 ft | 320 kts | 123° |
| 2026-04-30 21:50 | 32.14364 | -81.66227 | 12331 ft | 300 kts | 136° |
| 2026-04-30 21:50 | 32.12809 | -81.64710 | 11971 ft | 286 kts | 151° |
| 2026-04-30 21:50 | 32.11165 | -81.63427 | 11507 ft | 282 kts | 153° |
| 2026-04-30 21:51 | 32.09523 | -81.62176 | 11046 ft | 280 kts | 153° |
| 2026-04-30 21:51 | 32.07887 | -81.60950 | 10581 ft | 278 kts | 153° |
| 2026-04-30 21:51 | 32.06254 | -81.59735 | 10107 ft | 277 kts | 153° |
| 2026-04-30 21:51 | 32.04634 | -81.58529 | 9621 ft | 276 kts | 152° |
| 2026-04-30 21:52 | 32.03018 | -81.57326 | 9135 ft | 273 kts | 153° |
| 2026-04-30 21:52 | 32.01419 | -81.56142 | 8626 ft | 269 kts | 153° |
| 2026-04-30 21:52 | 31.99884 | -81.55006 | 8443 ft | 253 kts | 153° |
| 2026-04-30 21:52 | 31.98419 | -81.53912 | 8038 ft | 247 kts | 153° |
| 2026-04-30 21:53 | 31.96981 | -81.52843 | 7562 ft | 244 kts | 152° |
| 2026-04-30 21:53 | 31.95543 | -81.51788 | 7128 ft | 243 kts | 153° |
| 2026-04-30 21:53 | 31.94218 | -81.50552 | 6786 ft | 246 kts | 130° |
| 2026-04-30 21:53 | 31.93535 | -81.48725 | 6500 ft | 247 kts | 97° |
| 2026-04-30 21:54 | 31.93653 | -81.46741 | 6163 ft | 243 kts | 75° |
| 2026-04-30 21:54 | 31.94037 | -81.44806 | 5855 ft | 242 kts | 73° |
| 2026-04-30 21:54 | 31.94446 | -81.42896 | 5567 ft | 240 kts | 72° |
| 2026-04-30 21:54 | 31.94865 | -81.40998 | 5284 ft | 239 kts | 72° |
| 2026-04-30 21:55 | 31.95277 | -81.39109 | 5066 ft | 237 kts | 72° |
| 2026-04-30 21:55 | 31.95678 | -81.37256 | 4865 ft | 236 kts | 72° |
| 2026-04-30 21:55 | 31.96086 | -81.35379 | 4712 ft | 237 kts | 72° |
| 2026-04-30 21:55 | 31.96492 | -81.33524 | 4574 ft | 229 kts | 72° |
| 2026-04-30 21:56 | 31.96880 | -81.31760 | 4458 ft | 216 kts | 72° |
| 2026-04-30 21:56 | 31.97244 | -81.30101 | 4260 ft | 206 kts | 72° |
| 2026-04-30 21:56 | 31.97603 | -81.28457 | 3910 ft | 208 kts | 73° |
| 2026-04-30 21:56 | 31.97966 | -81.26823 | 3617 ft | 205 kts | 73° |
| 2026-04-30 21:57 | 31.98336 | -81.25217 | 3412 ft | 198 kts | 70° |
| 2026-04-30 21:57 | 31.99032 | -81.23916 | 3180 ft | 185 kts | 40° |
| 2026-04-30 21:57 | 32.00012 | -81.22951 | 2803 ft | 182 kts | 34° |
| 2026-04-30 21:57 | 32.01019 | -81.22048 | 2424 ft | 180 kts | 32° |
| 2026-04-30 21:58 | 32.02015 | -81.21170 | 2060 ft | 179 kts | 35° |
| 2026-04-30 21:58 | 32.03030 | -81.20346 | 1699 ft | 173 kts | 23° |
| 2026-04-30 21:58 | 32.04123 | -81.19961 | 1440 ft | 156 kts | 2° |
| 2026-04-30 21:58 | 32.05133 | -81.19952 | 1255 ft | 136 kts | 358° |
| 2026-04-30 21:59 | 32.06054 | -81.19958 | 1108 ft | 133 kts | 358° |
| 2026-04-30 21:59 | 32.06960 | -81.19964 | 944 ft | 129 kts | 359° |
| 2026-04-30 21:59 | 32.07857 | -81.19972 | 791 ft | 128 kts | 358° |
| 2026-04-30 22:00 | 32.09654 | -81.19985 | 493 ft | 132 kts | 356° |
| 2026-04-30 22:00 | 32.11437 | -81.20000 | 136 ft | 125 kts | 357° |
| 2026-04-30 22:00 | 32.12279 | -81.20006 | 48 ft | 108 kts | 359° |
| 2026-04-30 22:01 | 32.12888 | -81.20009 | 39 ft | 63 kts | 359° |
| 2026-04-30 22:01 | 32.13224 | -81.20012 | 47 ft | 41 kts | 359° |
| 2026-04-30 22:01 | 32.13476 | -81.20016 | 50 ft | 28 kts | 359° |
| 2026-04-30 22:01 | 32.13551 | -81.20020 | 49 ft | 9 kts | 352° |
| 2026-04-30 22:02 | 32.13572 | -81.20076 | 48 ft | 8 kts | 270° |
| 2026-04-30 22:02 | 32.13571 | -81.20134 | 50 ft | 6 kts | 269° |
| 2026-04-30 22:02 | 32.13571 | -81.20187 | 53 ft | 7 kts | 270° |
| 2026-04-30 22:02 | 32.13570 | -81.20252 | 51 ft | 10 kts | 270° |
| 2026-04-30 22:03 | 32.13569 | -81.20343 | 54 ft | 12 kts | 277° |
| 2026-04-30 22:03 | 32.13540 | -81.20420 | 54 ft | 12 kts | 196° |
| 2026-04-30 22:03 | 32.13464 | -81.20426 | 54 ft | 10 kts | 197° |
| 2026-04-30 22:03 | 32.13447 | -81.20501 | 54 ft | 11 kts | 270° |
| 2026-04-30 22:04 | 32.13447 | -81.20592 | 54 ft | 12 kts | 270° |
| 2026-04-30 22:04 | 32.13449 | -81.20690 | 54 ft | 12 kts | 271° |
| 2026-04-30 22:04 | 32.13508 | -81.20739 | 54 ft | 6 kts | 360° |
| 2026-04-30 22:05 | 32.13518 | -81.20739 | 54 ft | 0 kts | 0° |